Coleman A. Young Municipal Airport
KDET : rendu visible

Aérodrome :











RETROUVEZ-NOUS SUR...

 
LOGIN :

S'inscrire | Disclaimer

   EN    FR    IT 

 









Légende :    VFR   VFR Marginal   IFR   IFR Intensif   IFR Très Intensif
Visi : 
Plafond : 
>= 8 km
>= 3000ft
5 à 8 km
1000 à 3000 ft
1500m à 5 km
500 à 1000 ft
800 à 1500m
200 à 500 ft
< 800m
< 200 ft
Symboles :   Orages  Brouillard  Fortes neiges  Fortes précipitations  Vent > 20 kt






- Altitude de l'aérodrome : 626 ft
- Code IATA : DET


KDET - Coleman A. Young Municipal

DERNIER METAR :
  • 121853Z 30008KT 10SM SCT037 M04/M12 A3029 RMK AO2 SLP266 T10391122

METARs EXPIRÉS :
  • 121753Z 32007G17KT 10SM FEW037 M04/M13 A3029 RMK AO2 SLP271 60000 T10391128 11039 21072 50001
  • 121653Z 32009G20KT 10SM CLR M05/M13 A3030 RMK AO2 SLP274 T10501133

TAF KDET
Valide du 12 à 18h jusqu'au 13 à 18h UTC


121720Z 1218/1318 29012G18KT P6SM SCT030
TEMPO 1219/1222 BKN045
FM130000 27008KT P6SM SCT040
FM131200 24006KT P6SM OVC120
FM131500 21012KT P6SM OVC100



MET'MAP, la Météo Aéronautique d'un coup d'oeil ! - Copyright ORBIFLY Décembre 2007 - Disclaimer

ORBIFLY MET'MAP TEAM :

Programmation & Développement : Alexandra Zaïnal
Conception & Développement : Baudouin d'Aumeries
Co-Programmation & Développement : Marc-Olivier Méhu
Soutien technique & logistique : Manuel Goepfert

Contact : metmap@orbifly.com




SOURCES & CREDITS :

   NOAA       Earth
Advisory